My Meet Scores
Peyton Hassel, Gym Kinetics Gymnastics - MyMeetScores.com
Top100 | Top Teams | Upcoming Meets | Completed Meets | Latest | Add Scores | Help| Support | Bookmark and Share

Peyton Hassel, Gym Kinetics Gymnastics
Personal Bests
LevelVault BarsBeamFloorAA
49.4009.300 9.4259.32537.075
59.3258.925 9.4759.05036.275
69.3759.125 9.3509.35037.000
Meet Scores
Date Meet Team Session Level Division Vault Bars Beam Floor AA
2017-03-23 2017 Illinois Level 6, 7 State Championship Gym Kinetics Gymnastics 11 6 Sr D 9.375 4T 9.000 6T 9.275 8T 9.350 5T 37.000 3
2017-02-24 Kinetic Classic Gym Kinetics Gymnastics 9 6 All Ages 9.050 15T 8.925 30 9.275 25 9.000 37T 36.250 29
2017-02-09 Hal's Harley-Davidson Invite Gym Kinetics Gymnastics S01 6 14+ yrs. 9.300 3 7.950 9 9.350 1 9.150 8 35.750 5
2017-01-13 St Jude Benefit Meet Gym Kinetics Gymnastics 2B 6 Sr B 9.000 6T 9.000 4 9.150 7 9.275 9T 36.425 4
2016-12-16 2016 Aspire Classic Gym Kinetics Gymnastics 3 6 Older 9.200 4T 9.125 7 9.325 3T 8.975 11 36.625 5
2016-04-22 2016 Illinois Level 5 And Xcel State Championships Gym Kinetics Gymnastics 2 5 Sr D 9.175 8 8.675 11 9.300 1 9.000 9T 36.150 4
2016-02-20 Big Classic Gym Kinetics Gymnastics 11B 5 Child C 9.125 7 8.800 5 9.475 1 8.875 6 36.275 3
2016-01-22 2016 Honkytonk Classic Gym Kinetics Gymnastics 04 5 Sr 9.325 1 8.900 4 8.000 3 9.050 1T 35.275 3
2016-01-15 2016 Bravo Classic Gym Kinetics Gymnastics 1A 5 11+yrs 8.900 10T 8.825 9 9.125 5T 7.950 21 34.800 15
2015-12-18 2015 Aspire Classic Gym Kinetics Gymnastics 12 5 Older 8.850 9 8.925 9 9.025 8 8.350 19 35.150 11T
2015-03-19 2015 Illinois Level 4 State Championship Gym Kinetics Gymnastics All 4 Sr.D 9.275 4 9.100 9 9.425 3 9.275 11 37.075 6
2015-02-27 Gasparilla Classic Gym Kinetics Gymnastics D6 4 L4 D6 grp6 9.050 1 9.150 5 9.400 1 9.050 5 36.650 1
2015-02-21 BIG Classic Gym Kinetics Gymnastics 5A 4 Junior B 8.200 4 9.050 2 9.350 2T 9.200 2 35.800 3
2015-01-23 King Arthur Invitational Gym Kinetics Gymnastics 5 4 SrB 8.600 5 9.000 4 9.350 1 9.150 1 36.100 1
2015-01-09 Legacy Elite Winter Classic 2015 Flipstar Gymnastics Academy 4B 4 Jr B 8.825 3 9.300 4 9.275 5 8.850 7 36.250 3
2014-03-13 2014 Illinois Level 4 State Meet Gym Kinetics Gymnastics 4 Sr.B 8.850 13 9.025 16 8.300 32 9.025 23 35.200 23
2014-02-15 BIG Dream Classic 2014 Gym Kinetics Gymnastics 2A 4 Junior B 9.000 3 8.400 10 8.850 7T 8.825 6 35.075 5
2014-01-17 2014 Bravo Classic Gym Kinetics Gymnastics 9B 4 11+yrs 8.500 7T 9.050 5 8.175 8 8.850 11 34.575 6
2013-12-19 2013 Hawaiian Pineapple Classic Gym Kinetics Gymnastics A6 4 11 8.075 9 7.950 9 8.775 6 8.350 9 33.150 9
2013-04-04 2013 Illinois Level 3, 4 State Meet Gym Kinetics Gymnastics 4 Senior.A 9.350 20 8.900 23 9.100 13 9.325 14 36.675 21
2013-02-22 Midwest Open 2013 Gym Kinetics Gymnastics 6A 4 10 & up 9.400 6 8.750 13 8.450 10 8.900 4 35.500 9
2013-02-16 BIG Dream Classic 2013 Gym Kinetics Gymnastics 1A 4 Senior 9.150 18 9.050 17 8.950 15T 9.000 12 36.150 17

www.lazysuits.com